sensor_id;sensor_type;location;lat;lon;timestamp;pressure;altitude;pressure_sealevel;temperature;humidity
11525;BME280;5819;49.648;8.330;2022-10-14T00:00:53;100341.47;;;12.64;100.00
11525;BME280;5819;49.648;8.330;2022-10-14T00:03:22;100338.28;;;12.59;100.00
11525;BME280;5819;49.648;8.330;2022-10-14T00:05:50;100338.97;;;12.63;100.00
11525;BME280;5819;49.648;8.330;2022-10-14T00:08:17;100336.34;;;12.63;100.00
11525;BME280;5819;49.648;8.330;2022-10-14T00:10:45;100338.97;;;12.63;100.00
11525;BME280;5819;49.648;8.330;2022-10-14T00:13:13;100339.88;;;12.62;100.00
11525;BME280;5819;49.648;8.330;2022-10-14T00:15:42;100344.19;;;12.63;100.00
11525;BME280;5819;49.648;8.330;2022-10-14T00:18:10;100338.97;;;12.63;100.00
11525;BME280;5819;49.648;8.330;2022-10-14T00:20:37;100344.09;;;12.64;100.00
11525;BME280;5819;49.648;8.330;2022-10-14T00:23:05;100342.31;;;12.65;100.00
11525;BME280;5819;49.648;8.330;2022-10-14T00:25:36;100340.34;;;12.70;100.00
11525;BME280;5819;49.648;8.330;2022-10-14T00:28:05;100340.56;;;12.65;100.00
11525;BME280;5819;49.648;8.330;2022-10-14T00:30:33;100333.59;;;12.66;100.00
11525;BME280;5819;49.648;8.330;2022-10-14T00:33:03;100340.34;;;12.70;100.00
11525;BME280;5819;49.648;8.330;2022-10-14T00:35:31;100337.66;;;12.72;100.00
11525;BME280;5819;49.648;8.330;2022-10-14T00:37:59;100332.44;;;12.72;100.00
11525;BME280;5819;49.648;8.330;2022-10-14T00:40:27;100333.34;;;12.71;100.00
11525;BME280;5819;49.648;8.330;2022-10-14T00:42:54;100333.50;;;12.68;100.00
11525;BME280;5819;49.648;8.330;2022-10-14T00:45:24;100337.66;;;12.72;100.00
11525;BME280;5819;49.648;8.330;2022-10-14T00:47:53;100331.41;;;12.74;100.00
11525;BME280;5819;49.648;8.330;2022-10-14T00:50:23;100333.00;;;12.77;100.00
11525;BME280;5819;49.648;8.330;2022-10-14T00:52:50;100332.09;;;12.78;100.00
11525;BME280;5819;49.648;8.330;2022-10-14T00:55:19;100334.78;;;12.76;100.00
11525;BME280;5819;49.648;8.330;2022-10-14T00:57:46;100334.94;;;12.73;100.00
11525;BME280;5819;49.648;8.330;2022-10-14T01:00:17;100333.13;;;12.75;100.00
11525;BME280;5819;49.648;8.330;2022-10-14T01:02:47;100326.88;;;12.78;100.00
11525;BME280;5819;49.648;8.330;2022-10-14T01:05:18;100325.97;;;12.79;100.00
11525;BME280;5819;49.648;8.330;2022-10-14T01:08:00;100328.56;;;12.79;100.00
11525;BME280;5819;49.648;8.330;2022-10-14T01:10:35;100323.25;;;12.80;100.00
11525;BME280;5819;49.648;8.330;2022-10-14T01:13:16;100325.06;;;12.80;100.00
11525;BME280;5819;49.648;8.330;2022-10-14T01:15:56;100321.50;;;12.81;100.00
11525;BME280;5819;49.648;8.330;2022-10-14T01:18:37;100317.13;;;12.81;100.00
11525;BME280;5819;49.648;8.330;2022-10-14T01:21:19;100314.50;;;12.81;100.00
11525;BME280;5819;49.648;8.330;2022-10-14T01:24:17;100317.13;;;12.81;100.00
11525;BME280;5819;49.648;8.330;2022-10-14T01:27:04;100315.34;;;12.82;100.00
11525;BME280;5819;49.648;8.330;2022-10-14T01:29:58;100319.72;;;12.81;100.00
11525;BME280;5819;49.648;8.330;2022-10-14T01:32:31;100313.59;;;12.82;100.00
11525;BME280;5819;49.648;8.330;2022-10-14T01:35:05;100311.06;;;12.81;100.00
11525;BME280;5819;49.648;8.330;2022-10-14T01:37:37;100310.22;;;12.80;100.00
11525;BME280;5819;49.648;8.330;2022-10-14T01:40:10;100303.31;;;12.79;100.00
11525;BME280;5819;49.648;8.330;2022-10-14T01:42:40;100304.06;;;12.81;100.00
11525;BME280;5819;49.648;8.330;2022-10-14T01:45:16;100300.47;;;12.84;100.00
11525;BME280;5819;49.648;8.330;2022-10-14T01:47:48;100304.97;;;12.80;100.00
11525;BME280;5819;49.648;8.330;2022-10-14T01:50:19;100297.16;;;12.80;100.00
11525;BME280;5819;49.648;8.330;2022-10-14T01:52:50;100290.28;;;12.79;100.00
11525;BME280;5819;49.648;8.330;2022-10-14T01:55:22;100286.88;;;12.77;100.00
11525;BME280;5819;49.648;8.330;2022-10-14T01:57:54;100296.41;;;12.78;100.00
11525;BME280;5819;49.648;8.330;2022-10-14T02:00:25;100284.09;;;12.80;100.00
11525;BME280;5819;49.648;8.330;2022-10-14T02:02:53;100284.94;;;12.81;100.00
11525;BME280;5819;49.648;8.330;2022-10-14T02:05:24;100278.06;;;12.80;100.00
11525;BME280;5819;49.648;8.330;2022-10-14T02:07:56;100273.84;;;12.77;100.00
11525;BME280;5819;49.648;8.330;2022-10-14T02:10:32;100267.75;;;12.77;100.00
11525;BME280;5819;49.648;8.330;2022-10-14T02:13:14;100261.69;;;12.76;100.00
11525;BME280;5819;49.648;8.330;2022-10-14T02:15:59;100265.69;;;12.83;100.00
11525;BME280;5819;49.648;8.330;2022-10-14T02:18:35;100260.53;;;12.82;100.00
11525;BME280;5819;49.648;8.330;2022-10-14T02:21:11;100250.28;;;12.79;100.00
11525;BME280;5819;49.648;8.330;2022-10-14T02:23:45;100255.66;;;12.76;100.00
11525;BME280;5819;49.648;8.330;2022-10-14T02:26:16;100251.13;;;12.79;100.00
11525;BME280;5819;49.648;8.330;2022-10-14T02:28:46;100246.13;;;12.75;100.00
11525;BME280;5819;49.648;8.330;2022-10-14T02:31:17;100248.75;;;12.75;100.00
11525;BME280;5819;49.648;8.330;2022-10-14T02:33:50;100246.13;;;12.75;100.00
11525;BME280;5819;49.648;8.330;2022-10-14T02:36:22;100235.53;;;12.78;100.00
11525;BME280;5819;49.648;8.330;2022-10-14T02:38:52;100232.25;;;12.74;100.00
11525;BME280;5819;49.648;8.330;2022-10-14T02:41:23;100227.00;;;12.74;100.00
11525;BME280;5819;49.648;8.330;2022-10-14T02:43:52;100230.47;;;12.75;100.00
11525;BME280;5819;49.648;8.330;2022-10-14T02:46:21;100224.41;;;12.74;100.00
11525;BME280;5819;49.648;8.330;2022-10-14T02:48:49;100217.44;;;12.75;100.00
11525;BME280;5819;49.648;8.330;2022-10-14T02:51:18;100223.56;;;12.74;100.00
11525;BME280;5819;49.648;8.330;2022-10-14T02:53:45;100224.41;;;12.74;100.00
11525;BME280;5819;49.648;8.330;2022-10-14T02:56:15;100221.81;;;12.74;100.00
11525;BME280;5819;49.648;8.330;2022-10-14T02:58:43;100214.03;;;12.73;100.00
11525;BME280;5819;49.648;8.330;2022-10-14T03:01:11;100214.13;;;12.71;100.00
11525;BME280;5819;49.648;8.330;2022-10-14T03:03:40;100210.69;;;12.71;100.00
11525;BME280;5819;49.648;8.330;2022-10-14T03:06:08;100209.75;;;12.72;100.00
11525;BME280;5819;49.648;8.330;2022-10-14T03:08:36;100203.69;;;12.71;100.00
11525;BME280;5819;49.648;8.330;2022-10-14T03:11:05;100207.97;;;12.72;100.00
11525;BME280;5819;49.648;8.330;2022-10-14T03:13:33;100198.47;;;12.71;100.00
11525;BME280;5819;49.648;8.330;2022-10-14T03:16:01;100193.25;;;12.71;100.00
11525;BME280;5819;49.648;8.330;2022-10-14T03:18:31;100192.25;;;12.74;100.00
11525;BME280;5819;49.648;8.330;2022-10-14T03:21:07;100196.38;;;12.78;100.00
11525;BME280;5819;49.648;8.330;2022-10-14T03:23:39;100190.41;;;12.76;100.00
11525;BME280;5819;49.648;8.330;2022-10-14T03:26:08;100193.03;;;12.76;100.00
11525;BME280;5819;49.648;8.330;2022-10-14T03:28:42;100188.63;;;12.76;100.00
11525;BME280;5819;49.648;8.330;2022-10-14T03:31:16;100183.50;;;12.75;100.00
11525;BME280;5819;49.648;8.330;2022-10-14T03:34:00;100186.94;;;12.75;100.00
11525;BME280;5819;49.648;8.330;2022-10-14T03:36:31;100185.09;;;12.77;100.00
11525;BME280;5819;49.648;8.330;2022-10-14T03:38:59;100183.25;;;12.79;100.00
11525;BME280;5819;49.648;8.330;2022-10-14T03:41:40;100176.34;;;12.78;100.00
11525;BME280;5819;49.648;8.330;2022-10-14T03:44:10;100188.53;;;12.78;100.00
11525;BME280;5819;49.648;8.330;2022-10-14T03:46:45;100178.78;;;12.81;100.00
11525;BME280;5819;49.648;8.330;2022-10-14T03:49:13;100182.28;;;12.80;100.00
11525;BME280;5819;49.648;8.330;2022-10-14T03:51:42;100182.66;;;12.74;100.00
11525;BME280;5819;49.648;8.330;2022-10-14T03:54:17;100178.28;;;12.75;100.00
11525;BME280;5819;49.648;8.330;2022-10-14T03:56:45;100186.00;;;12.76;100.00
11525;BME280;5819;49.648;8.330;2022-10-14T03:59:15;100186.84;;;12.77;100.00
11525;BME280;5819;49.648;8.330;2022-10-14T04:01:47;100181.63;;;12.77;100.00
11525;BME280;5819;49.648;8.330;2022-10-14T04:04:21;100185.25;;;12.74;100.00
11525;BME280;5819;49.648;8.330;2022-10-14T04:06:52;100186.09;;;12.75;100.00
11525;BME280;5819;49.648;8.330;2022-10-14T04:09:21;100175.66;;;12.75;100.00
11525;BME280;5819;49.648;8.330;2022-10-14T04:11:49;100172.22;;;12.74;100.00
11525;BME280;5819;49.648;8.330;2022-10-14T04:14:37;100174.03;;;12.72;100.00
11525;BME280;5819;49.648;8.330;2022-10-14T04:17:05;100175.66;;;12.75;100.00
11525;BME280;5819;49.648;8.330;2022-10-14T04:19:33;100174.03;;;12.72;100.00
11525;BME280;5819;49.648;8.330;2022-10-14T04:22:03;100168.94;;;12.71;100.00
11525;BME280;5819;49.648;8.330;2022-10-14T04:24:32;100175.06;;;12.70;100.00
11525;BME280;5819;49.648;8.330;2022-10-14T04:27:00;100177.75;;;12.68;100.00
11525;BME280;5819;49.648;8.330;2022-10-14T04:29:41;100182.16;;;12.68;100.00
11525;BME280;5819;49.648;8.330;2022-10-14T04:32:25;100169.16;;;12.66;100.00
11525;BME280;5819;49.648;8.330;2022-10-14T04:34:53;100165.63;;;12.67;100.00
11525;BME280;5819;49.648;8.330;2022-10-14T04:37:25;100164.88;;;12.65;100.00
11525;BME280;5819;49.648;8.330;2022-10-14T04:40:00;100158.72;;;12.66;100.00
11525;BME280;5819;49.648;8.330;2022-10-14T04:42:30;100156.88;;;12.68;100.00
11525;BME280;5819;49.648;8.330;2022-10-14T04:45:03;100149.97;;;12.67;100.00
11525;BME280;5819;49.648;8.330;2022-10-14T04:47:44;100149.03;;;12.68;100.00
11525;BME280;5819;49.648;8.330;2022-10-14T04:50:17;100146.53;;;12.66;100.00
11525;BME280;5819;49.648;8.330;2022-10-14T04:53:05;100145.69;;;12.66;100.00
11525;BME280;5819;49.648;8.330;2022-10-14T04:55:46;100141.31;;;12.66;100.00
11525;BME280;5819;49.648;8.330;2022-10-14T04:58:15;100137.84;;;12.66;100.00
11525;BME280;5819;49.648;8.330;2022-10-14T05:00:45;100141.38;;;12.65;100.00
11525;BME280;5819;49.648;8.330;2022-10-14T05:03:27;100130.88;;;12.66;100.00
11525;BME280;5819;49.648;8.330;2022-10-14T05:05:56;100131.72;;;12.67;100.00
11525;BME280;5819;49.648;8.330;2022-10-14T05:08:25;100134.31;;;12.67;100.00
11525;BME280;5819;49.648;8.330;2022-10-14T05:10:55;100125.72;;;12.65;100.00
11525;BME280;5819;49.648;8.330;2022-10-14T05:13:39;100123.03;;;12.66;100.00
11525;BME280;5819;49.648;8.330;2022-10-14T05:16:07;100131.72;;;12.67;100.00
11525;BME280;5819;49.648;8.330;2022-10-14T05:18:36;100130.03;;;12.66;100.00
11525;BME280;5819;49.648;8.330;2022-10-14T05:21:08;100122.13;;;12.68;100.00
11525;BME280;5819;49.648;8.330;2022-10-14T05:23:50;100130.94;;;12.65;100.00
11525;BME280;5819;49.648;8.330;2022-10-14T05:26:18;100135.56;;;12.60;100.00
11525;BME280;5819;49.648;8.330;2022-10-14T05:28:50;100126.63;;;12.64;100.00
11525;BME280;5819;49.648;8.330;2022-10-14T05:31:19;100131.72;;;12.67;100.00
11525;BME280;5819;49.648;8.330;2022-10-14T05:33:57;100121.16;;;12.68;100.00
11525;BME280;5819;49.648;8.330;2022-10-14T05:36:25;100127.34;;;12.68;100.00
11525;BME280;5819;49.648;8.330;2022-10-14T05:38:54;100130.88;;;12.66;100.00
11525;BME280;5819;49.648;8.330;2022-10-14T05:41:28;100131.59;;;12.68;100.00
11525;BME280;5819;49.648;8.330;2022-10-14T05:43:57;100116.72;;;12.71;100.00
11525;BME280;5819;49.648;8.330;2022-10-14T05:46:26;100119.16;;;12.74;100.00
11525;BME280;5819;49.648;8.330;2022-10-14T05:48:55;100113.88;;;12.75;100.00
11525;BME280;5819;49.648;8.330;2022-10-14T05:51:23;100116.47;;;12.75;100.00
11525;BME280;5819;49.648;8.330;2022-10-14T05:54:00;100123.47;;;12.75;100.00
11525;BME280;5819;49.648;8.330;2022-10-14T05:56:29;100124.31;;;12.75;100.00
11525;BME280;5819;49.648;8.330;2022-10-14T05:58:57;100127.00;;;12.74;100.00
11525;BME280;5819;49.648;8.330;2022-10-14T06:01:26;100131.38;;;12.73;100.00
11525;BME280;5819;49.648;8.330;2022-10-14T06:03:54;100133.97;;;12.73;100.00
11525;BME280;5819;49.648;8.330;2022-10-14T06:06:22;100138.09;;;12.77;100.00
11525;BME280;5819;49.648;8.330;2022-10-14T06:08:54;100136.34;;;12.78;100.00
11525;BME280;5819;49.648;8.330;2022-10-14T06:11:24;100137.91;;;12.80;100.00
11525;BME280;5819;49.648;8.330;2022-10-14T06:13:51;100132.63;;;12.82;100.00
11525;BME280;5819;49.648;8.330;2022-10-14T06:16:19;100129.00;;;12.84;100.00
11525;BME280;5819;49.648;8.330;2022-10-14T06:18:47;100137.59;;;12.86;100.00
11525;BME280;5819;49.648;8.330;2022-10-14T06:21:20;100130.50;;;12.88;100.00
11525;BME280;5819;49.648;8.330;2022-10-14T06:23:48;100132.22;;;12.89;100.00
11525;BME280;5819;49.648;8.330;2022-10-14T06:26:15;100124.31;;;12.91;100.00
11525;BME280;5819;49.648;8.330;2022-10-14T06:28:44;100123.28;;;12.93;100.00
11525;BME280;5819;49.648;8.330;2022-10-14T06:31:12;100125.88;;;12.93;100.00
11525;BME280;5819;49.648;8.330;2022-10-14T06:33:40;100132.63;;;12.97;100.00
11525;BME280;5819;49.648;8.330;2022-10-14T06:36:09;100124.78;;;12.97;100.00
11525;BME280;5819;49.648;8.330;2022-10-14T06:38:37;100122.09;;;12.99;100.00
11525;BME280;5819;49.648;8.330;2022-10-14T06:41:05;100123.03;;;12.98;100.00
11525;BME280;5819;49.648;8.330;2022-10-14T06:43:33;100120.34;;;12.99;100.00
11525;BME280;5819;49.648;8.330;2022-10-14T06:46:03;100119.25;;;13.03;100.00
11525;BME280;5819;49.648;8.330;2022-10-14T06:48:31;100125.28;;;13.04;100.00
11525;BME280;5819;49.648;8.330;2022-10-14T06:51:00;100113.84;;;13.06;100.00
11525;BME280;5819;49.648;8.330;2022-10-14T06:53:28;100117.28;;;13.07;100.00
11525;BME280;5819;49.648;8.330;2022-10-14T06:55:57;100118.88;;;13.09;100.00
11525;BME280;5819;49.648;8.330;2022-10-14T06:58:25;100118.59;;;13.16;100.00
11525;BME280;5819;49.648;8.330;2022-10-14T07:00:54;100120.25;;;13.17;100.00
11525;BME280;5819;49.648;8.330;2022-10-14T07:03:27;100116.53;;;13.21;100.00
11525;BME280;5819;49.648;8.330;2022-10-14T07:05:55;100117.19;;;13.24;100.00
11525;BME280;5819;49.648;8.330;2022-10-14T07:08:27;100129.16;;;13.28;100.00
11525;BME280;5819;49.648;8.330;2022-10-14T07:10:54;100125.78;;;13.26;100.00
11525;BME280;5819;49.648;8.330;2022-10-14T07:13:22;100137.16;;;13.25;100.00
11525;BME280;5819;49.648;8.330;2022-10-14T07:15:50;100121.06;;;13.33;100.00
11525;BME280;5819;49.648;8.330;2022-10-14T07:18:18;100122.56;;;13.37;100.00
11525;BME280;5819;49.648;8.330;2022-10-14T07:20:47;100124.06;;;13.41;100.00
11525;BME280;5819;49.648;8.330;2022-10-14T07:23:15;100119.63;;;13.43;100.00
11525;BME280;5819;49.648;8.330;2022-10-14T07:25:43;100116.06;;;13.44;100.00
11525;BME280;5819;49.648;8.330;2022-10-14T07:28:11;100116.81;;;13.46;100.00
11525;BME280;5819;49.648;8.330;2022-10-14T07:30:39;100122.13;;;13.44;100.00
11525;BME280;5819;49.648;8.330;2022-10-14T07:33:07;100123.06;;;13.43;100.00
11525;BME280;5819;49.648;8.330;2022-10-14T07:35:36;100118.69;;;13.44;100.00
11525;BME280;5819;49.648;8.330;2022-10-14T07:38:05;100122.41;;;13.40;100.00
11525;BME280;5819;49.648;8.330;2022-10-14T07:40:33;100128.28;;;13.43;100.00
11525;BME280;5819;49.648;8.330;2022-10-14T07:43:01;100125.50;;;13.46;100.00
11525;BME280;5819;49.648;8.330;2022-10-14T07:45:29;100115.03;;;13.46;100.00
11525;BME280;5819;49.648;8.330;2022-10-14T07:48:01;100120.28;;;13.46;100.00
11525;BME280;5819;49.648;8.330;2022-10-14T07:50:28;100125.41;;;13.48;100.00
11525;BME280;5819;49.648;8.330;2022-10-14T07:52:56;100115.97;;;13.45;100.00
11525;BME280;5819;49.648;8.330;2022-10-14T07:55:28;100118.69;;;13.44;100.00
11525;BME280;5819;49.648;8.330;2022-10-14T07:57:56;100114.19;;;13.46;100.00
11525;BME280;5819;49.648;8.330;2022-10-14T08:00:23;100126.22;;;13.48;100.00
11525;BME280;5819;49.648;8.330;2022-10-14T08:02:52;100122.69;;;13.49;100.00
11525;BME280;5819;49.648;8.330;2022-10-14T08:05:20;100133.16;;;13.49;100.00
11525;BME280;5819;49.648;8.330;2022-10-14T08:08:04;100129.81;;;13.47;100.00
11525;BME280;5819;49.648;8.330;2022-10-14T08:10:34;100127.84;;;13.51;100.00
11525;BME280;5819;49.648;8.330;2022-10-14T08:13:03;100127.06;;;13.49;100.00
11525;BME280;5819;49.648;8.330;2022-10-14T08:15:33;100125.31;;;13.49;100.00
11525;BME280;5819;49.648;8.330;2022-10-14T08:18:04;100127.00;;;13.50;100.00
11525;BME280;5819;49.648;8.330;2022-10-14T08:20:32;100132.81;;;13.55;100.00
11525;BME280;5819;49.648;8.330;2022-10-14T08:23:01;100130.00;;;13.58;100.00
11525;BME280;5819;49.648;8.330;2022-10-14T08:25:29;100128.97;;;13.61;100.00
11525;BME280;5819;49.648;8.330;2022-10-14T08:27:58;100130.59;;;13.64;100.00
11525;BME280;5819;49.648;8.330;2022-10-14T08:30:26;100126.03;;;13.67;100.00
11525;BME280;5819;49.648;8.330;2022-10-14T08:32:53;100131.06;;;13.70;100.00
11525;BME280;5819;49.648;8.330;2022-10-14T08:35:21;100118.66;;;13.74;100.00
11525;BME280;5819;49.648;8.330;2022-10-14T08:37:56;100121.06;;;13.77;100.00
11525;BME280;5819;49.648;8.330;2022-10-14T08:40:26;100125.97;;;13.83;100.00
11525;BME280;5819;49.648;8.330;2022-10-14T08:42:59;100122.03;;;13.90;100.00
11525;BME280;5819;49.648;8.330;2022-10-14T08:45:31;100121.00;;;13.92;100.00
11525;BME280;5819;49.648;8.330;2022-10-14T08:48:07;100121.69;;;13.96;100.00
11525;BME280;5819;49.648;8.330;2022-10-14T08:50:39;100127.47;;;14.01;100.00
11525;BME280;5819;49.648;8.330;2022-10-14T08:53:12;100122.06;;;14.04;100.00
11525;BME280;5819;49.648;8.330;2022-10-14T08:55:42;100120.00;;;14.09;100.00
11525;BME280;5819;49.648;8.330;2022-10-14T08:58:17;100113.75;;;14.12;100.00
11525;BME280;5819;49.648;8.330;2022-10-14T09:00:49;100115.25;;;14.16;100.00
11525;BME280;5819;49.648;8.330;2022-10-14T09:03:21;100115.78;;;14.21;100.00
11525;BME280;5819;49.648;8.330;2022-10-14T09:05:56;100123.47;;;14.24;100.00
11525;BME280;5819;49.648;8.330;2022-10-14T09:08:27;100117.78;;;14.31;100.00
11525;BME280;5819;49.648;8.330;2022-10-14T09:10:57;100118.63;;;14.32;100.00
11525;BME280;5819;49.648;8.330;2022-10-14T09:13:30;100119.44;;;14.32;100.00
11525;BME280;5819;49.648;8.330;2022-10-14T09:16:03;100123.47;;;14.38;100.00
11525;BME280;5819;49.648;8.330;2022-10-14T09:18:35;100113.47;;;14.44;100.00
11525;BME280;5819;49.648;8.330;2022-10-14T09:21:20;100121.41;;;14.57;100.00
11525;BME280;5819;49.648;8.330;2022-10-14T09:24:12;100127.69;;;14.55;100.00
11525;BME280;5819;49.648;8.330;2022-10-14T09:26:42;100128.31;;;14.58;100.00
11525;BME280;5819;49.648;8.330;2022-10-14T09:29:23;100131.59;;;14.62;100.00
11525;BME280;5819;49.648;8.330;2022-10-14T09:31:52;100124.84;;;14.72;100.00
11525;BME280;5819;49.648;8.330;2022-10-14T09:34:27;100129.44;;;14.68;100.00
11525;BME280;5819;49.648;8.330;2022-10-14T09:37:00;100130.59;;;14.64;100.00
11525;BME280;5819;49.648;8.330;2022-10-14T09:39:32;100133.00;;;14.67;100.00
11525;BME280;5819;49.648;8.330;2022-10-14T09:42:04;100140.75;;;14.69;100.00
11525;BME280;5819;49.648;8.330;2022-10-14T09:44:41;100130.94;;;14.72;100.00
11525;BME280;5819;49.648;8.330;2022-10-14T09:47:11;100137.66;;;14.76;100.00
11525;BME280;5819;49.648;8.330;2022-10-14T09:49:46;100135.97;;;14.75;100.00
11525;BME280;5819;49.648;8.330;2022-10-14T09:52:20;100134.13;;;14.63;100.00
11525;BME280;5819;49.648;8.330;2022-10-14T09:54:53;100130.47;;;14.66;100.00
11525;BME280;5819;49.648;8.330;2022-10-14T09:57:23;100131.31;;;14.66;100.00
11525;BME280;5819;49.648;8.330;2022-10-14T09:59:55;100131.94;;;14.70;100.00
11525;BME280;5819;49.648;8.330;2022-10-14T10:02:35;100119.97;;;14.80;100.00
11525;BME280;5819;49.648;8.330;2022-10-14T10:05:11;100114.19;;;14.75;100.00
11525;BME280;5819;49.648;8.330;2022-10-14T10:07:39;100105.47;;;14.74;100.00
11525;BME280;5819;49.648;8.330;2022-10-14T10:10:17;100103.22;;;14.82;100.00
11525;BME280;5819;49.648;8.330;2022-10-14T10:12:45;100103.56;;;14.90;100.00
11525;BME280;5819;49.648;8.330;2022-10-14T10:15:18;100112.72;;;14.97;100.00
11525;BME280;5819;49.648;8.330;2022-10-14T10:17:47;100110.22;;;15.09;100.00
11525;BME280;5819;49.648;8.330;2022-10-14T10:20:19;100104.81;;;15.12;100.00
11525;BME280;5819;49.648;8.330;2022-10-14T10:22:55;100099.78;;;15.21;100.00
11525;BME280;5819;49.648;8.330;2022-10-14T10:25:25;100109.25;;;15.24;100.00
11525;BME280;5819;49.648;8.330;2022-10-14T10:27:56;100099.06;;;15.19;100.00
11525;BME280;5819;49.648;8.330;2022-10-14T10:30:28;100101.47;;;15.22;100.00
11525;BME280;5819;49.648;8.330;2022-10-14T10:33:16;100097.63;;;15.28;100.00
11525;BME280;5819;49.648;8.330;2022-10-14T10:36:07;100096.88;;;15.26;100.00
11525;BME280;5819;49.648;8.330;2022-10-14T10:38:53;100093.72;;;15.21;100.00
11525;BME280;5819;49.648;8.330;2022-10-14T10:41:32;100095.59;;;15.19;100.00
11525;BME280;5819;49.648;8.330;2022-10-14T10:47:22;100087.78;;;15.05;100.00
11525;BME280;5819;49.648;8.330;2022-10-14T10:50:16;100090.31;;;15.06;100.00
11525;BME280;5819;49.648;8.330;2022-10-14T10:52:58;100088.25;;;15.11;100.00
11525;BME280;5819;49.648;8.330;2022-10-14T10:55:36;100086.84;;;15.06;100.00
11525;BME280;5819;49.648;8.330;2022-10-14T10:58:18;100081.13;;;15.13;100.00
11525;BME280;5819;49.648;8.330;2022-10-14T11:00:58;100079.00;;;15.06;100.00
11525;BME280;5819;49.648;8.330;2022-10-14T11:03:43;100080.69;;;15.07;100.00
11525;BME280;5819;49.648;8.330;2022-10-14T11:06:20;100080.59;;;15.08;100.00
11525;BME280;5819;49.648;8.330;2022-10-14T11:09:12;100076.38;;;15.06;100.00
11525;BME280;5819;49.648;8.330;2022-10-14T11:12:08;100066.00;;;15.04;100.00
11525;BME280;5819;49.648;8.330;2022-10-14T11:15:10;100063.19;;;15.07;100.00
11525;BME280;5819;49.648;8.330;2022-10-14T11:17:50;100070.00;;;15.10;100.00
11525;BME280;5819;49.648;8.330;2022-10-14T11:20:29;100068.47;;;15.20;100.00
11525;BME280;5819;49.648;8.330;2022-10-14T11:23:24;100047.63;;;15.31;100.00
11525;BME280;5819;49.648;8.330;2022-10-14T11:25:59;100048.88;;;15.25;100.00
11525;BME280;5819;49.648;8.330;2022-10-14T11:28:36;100040.50;;;15.20;100.00
11525;BME280;5819;49.648;8.330;2022-10-14T11:31:13;100038.25;;;15.14;100.00
11525;BME280;5819;49.648;8.330;2022-10-14T11:33:56;100027.06;;;15.12;100.00
11525;BME280;5819;49.648;8.330;2022-10-14T11:36:35;100017.06;;;15.05;100.00
11525;BME280;5819;49.648;8.330;2022-10-14T11:39:21;100024.63;;;15.09;100.00
11525;BME280;5819;49.648;8.330;2022-10-14T11:42:05;100013.16;;;14.97;100.00
11525;BME280;5819;49.648;8.330;2022-10-14T11:44:40;100007.09;;;14.97;100.00
11525;BME280;5819;49.648;8.330;2022-10-14T11:47:12;100000.63;;;15.03;100.00
11525;BME280;5819;49.648;8.330;2022-10-14T11:49:46;99997.44;;;14.97;100.00
11525;BME280;5819;49.648;8.330;2022-10-14T11:52:22;99994.94;;;14.96;100.00
11525;BME280;5819;49.648;8.330;2022-10-14T11:54:55;99990.13;;;15.03;100.00
11525;BME280;5819;49.648;8.330;2022-10-14T11:57:28;99990.44;;;14.98;100.00
11525;BME280;5819;49.648;8.330;2022-10-14T12:00:00;99977.97;;;15.02;100.00
11525;BME280;5819;49.648;8.330;2022-10-14T12:03:00;99974.34;;;15.04;100.00
11525;BME280;5819;49.648;8.330;2022-10-14T12:05:35;99965.00;;;15.00;100.00
11525;BME280;5819;49.648;8.330;2022-10-14T12:08:15;99967.72;;;14.98;100.00
11525;BME280;5819;49.648;8.330;2022-10-14T12:10:50;99954.59;;;14.98;100.00
11525;BME280;5819;49.648;8.330;2022-10-14T12:13:31;99955.44;;;14.99;100.00
11525;BME280;5819;49.648;8.330;2022-10-14T12:16:02;99949.69;;;15.07;100.00
11525;BME280;5819;49.648;8.330;2022-10-14T12:18:31;99938.59;;;15.03;100.00
11525;BME280;5819;49.648;8.330;2022-10-14T12:21:13;99938.28;;;15.08;100.00
11525;BME280;5819;49.648;8.330;2022-10-14T12:23:48;99928.53;;;15.10;100.00
11525;BME280;5819;49.648;8.330;2022-10-14T12:26:31;99932.81;;;15.11;100.00
11525;BME280;5819;49.648;8.330;2022-10-14T12:29:04;99929.66;;;15.06;100.00
11525;BME280;5819;49.648;8.330;2022-10-14T12:31:35;99921.09;;;15.16;100.00
11525;BME280;5819;49.648;8.330;2022-10-14T12:34:26;99928.84;;;15.18;100.00
11525;BME280;5819;49.648;8.330;2022-10-14T12:36:55;99926.66;;;15.24;100.00
11525;BME280;5819;49.648;8.330;2022-10-14T12:39:33;99920.56;;;15.24;100.00
11525;BME280;5819;49.648;8.330;2022-10-14T12:42:02;99924.53;;;15.29;100.00
11525;BME280;5819;49.648;8.330;2022-10-14T12:44:34;99935.66;;;15.33;100.00
11525;BME280;5819;49.648;8.330;2022-10-14T12:47:04;99937.97;;;15.37;100.00
11525;BME280;5819;49.648;8.330;2022-10-14T12:49:33;99943.09;;;15.39;100.00
11525;BME280;5819;49.648;8.330;2022-10-14T12:52:04;99950.97;;;15.26;100.00
11525;BME280;5819;49.648;8.330;2022-10-14T12:54:36;99946.56;;;15.27;100.00
11525;BME280;5819;49.648;8.330;2022-10-14T12:57:14;99941.41;;;15.25;100.00
11525;BME280;5819;49.648;8.330;2022-10-14T12:59:49;99935.25;;;15.26;100.00
11525;BME280;5819;49.648;8.330;2022-10-14T13:02:25;99935.66;;;15.33;100.00
11525;BME280;5819;49.648;8.330;2022-10-14T13:04:59;99945.09;;;15.23;100.00
11525;BME280;5819;49.648;8.330;2022-10-14T13:07:38;99938.69;;;15.27;100.00
11525;BME280;5819;49.648;8.330;2022-10-14T13:13:58;99926.00;;;15.21;100.00
11525;BME280;5819;49.648;8.330;2022-10-14T13:16:54;99923.91;;;15.26;100.00
11525;BME280;5819;49.648;8.330;2022-10-14T13:19:38;99919.94;;;15.33;100.00
11525;BME280;5819;49.648;8.330;2022-10-14T13:22:39;99915.84;;;15.29;100.00
11525;BME280;5819;49.648;8.330;2022-10-14T13:25:13;99909.88;;;15.27;100.00
11525;BME280;5819;49.648;8.330;2022-10-14T13:28:00;99898.97;;;15.33;100.00